Time;durP1;ratioP1;P1;durP2;ratioP2;P2;SDS_P1;SDS_P2;PMS_P1;PMS_P2;Temp;Humidity;BMP_temperature;BMP_pressure;BME280_temperature;BME280_humidity;BME280_pressure;Samples;Min_cycle;Max_cycle;Signal;HPM_P1;HPM_P2
2023/12/14 00:01:19;;;;;;;13.27;6.93;;;;;;;3.50;100.00;101081.53;4915013;29;20058;-76
2023/12/14 00:03:47;;;;;;;9.25;5.78;;;;;;;3.49;100.00;101075.41;4893573;29;20054;-77
2023/12/14 00:06:14;;;;;;;11.73;6.72;;;;;;;3.48;100.00;101085.78;4915339;29;20047;-76
2023/12/14 00:08:42;;;;;;;14.40;7.00;;;;;;;3.46;100.00;101090.94;4931836;29;20054;-77
2023/12/14 00:11:11;;;;;;;9.63;6.25;;;;;;;3.47;100.00;101097.91;4940273;29;20047;-77
2023/12/14 00:13:40;;;;;;;9.95;6.20;;;;;;;3.49;100.00;101096.25;4901534;29;20143;-77
2023/12/14 00:16:08;;;;;;;10.50;6.97;;;;;;;3.49;100.00;101111.00;4929920;29;20051;-76
2023/12/14 00:18:36;;;;;;;12.88;7.03;;;;;;;3.49;100.00;101117.09;4888831;29;21130;-77
2023/12/14 00:21:04;;;;;;;9.60;7.35;;;;;;;3.53;100.00;101130.22;4932962;29;20050;-76
2023/12/14 00:23:33;;;;;;;11.00;6.97;;;;;;;3.55;100.00;101137.25;4915574;29;20059;-77
2023/12/14 00:26:00;;;;;;;12.25;7.53;;;;;;;3.56;100.00;101139.06;4941701;29;20058;-76
2023/12/14 00:28:28;;;;;;;12.23;8.05;;;;;;;3.58;100.00;101153.03;4931173;29;20044;-77
2023/12/14 00:31:00;;;;;;;12.13;7.30;;;;;;;3.58;100.00;101153.03;4933325;29;20056;-78
2023/12/14 00:33:27;;;;;;;12.20;7.45;;;;;;;3.60;100.00;101151.34;4946105;28;20051;-77
2023/12/14 00:35:55;;;;;;;13.73;7.55;;;;;;;3.60;100.00;101146.16;4878868;29;20066;-77
2023/12/14 00:38:22;;;;;;;14.40;6.68;;;;;;;3.60;100.00;101153.09;4930128;29;20051;-76
2023/12/14 00:40:50;;;;;;;12.40;7.72;;;;;;;3.59;100.00;101159.13;4931069;29;20539;-77
2023/12/14 00:43:17;;;;;;;12.45;6.75;;;;;;;3.57;100.00;101161.66;4907520;29;20650;-77
2023/12/14 00:45:45;;;;;;;18.45;7.22;;;;;;;3.59;100.00;101159.13;4925014;29;20444;-77
2023/12/14 00:48:13;;;;;;;17.23;7.32;;;;;;;3.58;100.00;101162.56;4912602;29;20051;-76
2023/12/14 00:50:40;;;;;;;12.15;6.85;;;;;;;3.58;100.00;101162.56;4888675;29;20393;-77
2023/12/14 00:53:08;;;;;;;12.48;7.03;;;;;;;3.57;100.00;101171.19;4913455;29;20054;-77
2023/12/14 00:55:35;;;;;;;14.57;7.18;;;;;;;3.54;100.00;101165.91;4949084;29;20487;-77
2023/12/14 00:58:02;;;;;;;13.50;7.22;;;;;;;3.54;100.00;101181.53;4922111;29;20082;-77
2023/12/14 01:00:31;;;;;;;15.68;7.85;;;;;;;3.54;100.00;101190.22;4902932;29;20039;-77
2023/12/14 01:02:58;;;;;;;14.55;7.30;;;;;;;3.53;100.00;101183.22;4883947;29;20059;-77
2023/12/14 01:05:25;;;;;;;11.23;7.20;;;;;;;3.53;100.00;101193.66;4888304;29;20044;-76
2023/12/14 01:07:53;;;;;;;10.77;7.10;;;;;;;3.50;100.00;101199.66;4935449;29;20416;-77
2023/12/14 01:10:20;;;;;;;13.85;7.75;;;;;;;3.49;100.00;101197.84;4914128;29;20058;-76
2023/12/14 01:12:48;;;;;;;9.85;7.68;;;;;;;3.50;100.00;101212.69;4923145;29;20051;-78
2023/12/14 01:15:16;;;;;;;17.20;8.05;;;;;;;3.49;100.00;101204.78;4948586;29;20062;-77
2023/12/14 01:17:43;;;;;;;12.10;7.60;;;;;;;3.50;100.00;101209.19;4915791;29;20433;-77
2023/12/14 01:20:11;;;;;;;12.02;8.20;;;;;;;3.50;100.00;101217.00;4888902;29;21365;-77
2023/12/14 01:22:38;;;;;;;13.55;8.20;;;;;;;3.51;100.00;101219.66;4930647;29;20051;-77
2023/12/14 01:25:06;;;;;;;14.05;7.63;;;;;;;3.53;100.00;101217.09;4927255;29;20055;-78
2023/12/14 01:27:33;;;;;;;15.50;7.53;;;;;;;3.54;100.00;101213.69;4919380;29;20052;-77
2023/12/14 01:30:01;;;;;;;14.18;6.88;;;;;;;3.55;100.00;101217.16;4911438;29;20047;-77
2023/12/14 01:32:28;;;;;;;14.07;6.82;;;;;;;3.54;100.00;101226.72;4918979;29;20047;-78
2023/12/14 01:34:55;;;;;;;14.80;7.47;;;;;;;3.55;100.00;101232.81;4916627;29;20051;-76
2023/12/14 01:37:23;;;;;;;13.30;7.13;;;;;;;3.53;100.00;101231.84;4863543;29;20398;-77
2023/12/14 01:39:50;;;;;;;15.00;7.30;;;;;;;3.50;100.00;101233.53;4899243;29;20051;-77
2023/12/14 01:42:17;;;;;;;12.95;6.95;;;;;;;3.52;100.00;101236.19;4938039;29;20039;-76
2023/12/14 01:44:45;;;;;;;11.82;6.90;;;;;;;3.54;100.00;101244.06;4948929;28;20047;-76
2023/12/14 01:47:12;;;;;;;9.98;6.15;;;;;;;3.55;100.00;101251.91;4928487;29;20494;-76
2023/12/14 01:49:41;;;;;;;11.73;7.07;;;;;;;3.54;100.00;101257.97;4916097;29;20055;-77
2023/12/14 01:52:09;;;;;;;8.50;6.75;;;;;;;3.55;100.00;101257.13;4874035;29;20058;-77
2023/12/14 01:54:36;;;;;;;10.45;6.60;;;;;;;3.56;100.00;101258.03;4941506;29;20043;-77
2023/12/14 01:57:03;;;;;;;16.67;7.28;;;;;;;3.57;100.00;101267.63;4939794;29;20051;-77
2023/12/14 01:59:31;;;;;;;13.50;6.50;;;;;;;3.58;100.00;101267.69;4929997;29;20043;-77
2023/12/14 02:01:59;;;;;;;9.43;6.07;;;;;;;3.58;100.00;101272.03;4915318;29;20051;-76
2023/12/14 02:04:26;;;;;;;13.93;6.88;;;;;;;3.59;100.00;101268.56;4931307;29;20058;-78
2023/12/14 02:06:54;;;;;;;10.40;6.50;;;;;;;3.59;100.00;101279.91;4916579;29;20042;-79
2023/12/14 02:09:21;;;;;;;12.70;7.65;;;;;;;3.59;100.00;101279.00;4907944;29;20043;-76
2023/12/14 02:11:48;;;;;;;16.95;7.32;;;;;;;3.60;100.00;101270.34;4914777;29;20047;-78
2023/12/14 02:14:16;;;;;;;11.18;7.32;;;;;;;3.62;100.00;101276.50;4905726;29;20062;-77
2023/12/14 02:16:43;;;;;;;11.45;6.88;;;;;;;3.63;100.00;101283.47;4899250;29;20054;-77
2023/12/14 02:19:11;;;;;;;11.02;6.57;;;;;;;3.62;100.00;101281.72;4912847;29;20486;-77
2023/12/14 02:21:38;;;;;;;11.55;6.53;;;;;;;3.62;100.00;101276.50;4947533;29;20050;-77
2023/12/14 02:24:07;;;;;;;13.15;6.38;;;;;;;3.63;100.00;101286.09;4892257;29;20386;-76
2023/12/14 02:26:34;;;;;;;11.98;6.80;;;;;;;3.63;100.00;101278.28;4916050;29;20054;-77
2023/12/14 02:29:03;;;;;;;10.82;7.22;;;;;;;3.65;100.00;101290.56;4936684;29;20059;-77
2023/12/14 02:31:30;;;;;;;16.13;6.88;;;;;;;3.63;100.00;101286.09;4916703;29;20110;-78
2023/12/14 02:33:58;;;;;;;14.82;6.97;;;;;;;3.62;100.00;101290.44;4916550;29;20051;-78
2023/12/14 02:36:26;;;;;;;11.35;6.53;;;;;;;3.61;100.00;101303.38;4945322;29;20199;-78
2023/12/14 02:38:53;;;;;;;14.18;6.80;;;;;;;3.60;100.00;101299.03;4910173;28;20045;-76
2023/12/14 02:41:20;;;;;;;11.77;6.60;;;;;;;3.60;100.00;101304.25;4929685;29;20766;-76
2023/12/14 02:43:48;;;;;;;13.52;6.35;;;;;;;3.60;100.00;101302.50;4890788;29;20051;-77
2023/12/14 02:46:15;;;;;;;12.25;6.28;;;;;;;3.61;100.00;101303.38;4927634;29;20058;-76
2023/12/14 02:48:43;;;;;;;11.27;6.68;;;;;;;3.63;100.00;101307.84;4931810;29;20054;-77
2023/12/14 02:51:14;;;;;;;13.27;6.25;;;;;;;3.63;100.00;101317.38;4928060;29;20066;-77
2023/12/14 02:53:42;;;;;;;11.35;7.13;;;;;;;3.62;100.00;101320.81;4917139;28;20054;-77
2023/12/14 02:56:10;;;;;;;11.60;6.10;;;;;;;3.61;100.00;101325.16;4928472;29;20983;-76
2023/12/14 02:58:38;;;;;;;14.75;6.97;;;;;;;3.62;100.00;101331.25;4922875;29;20047;-77
2023/12/14 03:01:06;;;;;;;14.18;7.07;;;;;;;3.62;100.00;101326.03;4913455;29;20047;-77
2023/12/14 03:03:34;;;;;;;10.13;6.28;;;;;;;3.65;100.00;101329.66;4917863;29;20445;-77
2023/12/14 03:06:01;;;;;;;15.38;7.82;;;;;;;3.67;100.00;101334.94;4915040;29;20062;-77
2023/12/14 03:08:29;;;;;;;12.50;8.75;;;;;;;3.71;100.00;101342.03;4932415;29;20078;-78
2023/12/14 03:10:57;;;;;;;16.48;8.88;;;;;;;3.72;100.00;101333.38;4883078;29;20549;-77
2023/12/14 03:13:24;;;;;;;17.00;9.27;;;;;;;3.73;100.00;101342.97;4934614;29;20054;-77
2023/12/14 03:15:52;;;;;;;16.02;9.38;;;;;;;3.73;100.00;101350.81;4916641;29;20055;-78
2023/12/14 03:18:19;;;;;;;24.00;9.80;;;;;;;3.71;100.00;101348.13;4959612;28;20043;-77
2023/12/14 03:20:47;;;;;;;21.40;10.20;;;;;;;3.72;100.00;101354.22;4929749;29;20428;-77
2023/12/14 03:23:15;;;;;;;17.33;9.95;;;;;;;3.73;100.00;101357.75;4927959;29;20043;-77
2023/12/14 03:25:42;;;;;;;18.15;10.48;;;;;;;3.71;100.00;101355.06;4892891;28;20055;-77
2023/12/14 03:28:09;;;;;;;24.10;10.80;;;;;;;3.71;100.00;101352.47;4945841;29;20056;-77
2023/12/14 03:30:37;;;;;;;16.45;9.55;;;;;;;3.69;100.00;101354.13;4921934;29;20605;-78
2023/12/14 03:33:06;;;;;;;18.85;9.27;;;;;;;3.69;100.00;101361.94;4892439;29;20047;-77
2023/12/14 03:35:35;;;;;;;16.10;8.65;;;;;;;3.70;100.00;101381.94;4929624;29;20059;-79
2023/12/14 03:38:03;;;;;;;16.45;9.85;;;;;;;3.69;100.00;101381.06;4928852;29;20060;-77
2023/12/14 03:40:30;;;;;;;15.18;9.55;;;;;;;3.71;100.00;101387.22;4886802;29;20048;-77
2023/12/14 03:42:58;;;;;;;19.45;10.30;;;;;;;3.68;100.00;101394.03;4930062;29;20051;-77
2023/12/14 03:45:25;;;;;;;14.05;8.85;;;;;;;3.68;100.00;101399.25;4916475;29;20051;-77
2023/12/14 03:47:53;;;;;;;15.40;9.15;;;;;;;3.66;100.00;101399.19;4930089;29;20055;-78
2023/12/14 03:50:20;;;;;;;14.93;8.80;;;;;;;3.67;100.00;101398.38;4913410;29;20051;-76
2023/12/14 03:52:47;;;;;;;13.90;9.50;;;;;;;3.69;100.00;101395.81;4902104;29;20039;-77
2023/12/14 03:55:15;;;;;;;16.40;9.38;;;;;;;3.67;100.00;101397.47;4863249;29;28751;-78
2023/12/14 03:57:42;;;;;;;16.98;9.13;;;;;;;3.65;100.00;101396.53;4932212;29;20393;-77
2023/12/14 04:00:12;;;;;;;16.00;9.60;;;;;;;3.65;100.00;101399.16;4917678;29;20059;-77
2023/12/14 04:02:40;;;;;;;18.38;8.98;;;;;;;3.65;100.00;101401.75;4947902;29;20043;-77
2023/12/14 04:05:08;;;;;;;17.30;9.65;;;;;;;3.65;100.00;101406.97;4944665;29;20050;-78
2023/12/14 04:07:40;;;;;;;17.45;9.77;;;;;;;3.66;100.00;101406.13;4933272;29;20043;-77
2023/12/14 04:10:09;;;;;;;13.75;8.90;;;;;;;3.66;100.00;101412.22;4932386;29;20047;-76
2023/12/14 04:12:38;;;;;;;18.67;9.40;;;;;;;3.65;100.00;101404.34;4879410;29;20058;-77
2023/12/14 04:15:08;;;;;;;17.67;10.02;;;;;;;3.66;100.00;101406.13;4894939;29;20047;-77
2023/12/14 04:17:36;;;;;;;13.25;9.30;;;;;;;3.66;100.00;101408.72;4934331;29;20047;-78
2023/12/14 04:20:06;;;;;;;19.13;10.18;;;;;;;3.66;100.00;101420.03;4932506;29;20055;-78
2023/12/14 04:22:34;;;;;;;19.63;9.90;;;;;;;3.64;100.00;101415.59;4949945;29;20047;-77
2023/12/14 04:25:01;;;;;;;15.63;9.25;;;;;;;3.64;100.00;101421.69;4912116;29;20050;-77
2023/12/14 04:27:29;;;;;;;14.27;9.70;;;;;;;3.64;100.00;101426.03;4890681;29;20055;-77
2023/12/14 04:29:57;;;;;;;18.90;10.27;;;;;;;3.65;100.00;101420.00;4926555;29;20046;-77
2023/12/14 04:32:25;;;;;;;15.18;9.60;;;;;;;3.65;100.00;101425.22;4912712;29;20055;-77
2023/12/14 04:34:52;;;;;;;18.05;9.88;;;;;;;3.66;100.00;101434.78;4932340;29;20058;-77
2023/12/14 04:37:20;;;;;;;20.17;10.15;;;;;;;3.68;100.00;101435.72;4903376;29;20051;-77
2023/12/14 04:39:47;;;;;;;19.05;9.95;;;;;;;3.68;100.00;101440.94;4945851;29;20468;-77
2023/12/14 04:42:15;;;;;;;19.70;10.35;;;;;;;3.66;100.00;101440.00;4873690;29;20055;-78
2023/12/14 04:44:42;;;;;;;18.05;9.63;;;;;;;3.65;100.00;101448.66;4929827;29;20062;-77
2023/12/14 04:47:10;;;;;;;16.60;10.13;;;;;;;3.65;100.00;101446.94;4923588;29;20039;-78
2023/12/14 04:49:37;;;;;;;18.25;9.90;;;;;;;3.65;100.00;101453.88;4930191;29;20051;-77
2023/12/14 04:52:05;;;;;;;17.52;9.80;;;;;;;3.64;100.00;101457.28;4932680;29;20050;-78
2023/12/14 04:54:35;;;;;;;15.95;9.30;;;;;;;3.64;100.00;101452.97;4930903;29;20051;-76
2023/12/14 04:57:03;;;;;;;18.08;9.77;;;;;;;3.65;100.00;101462.56;4886687;29;20042;-77
2023/12/14 04:59:31;;;;;;;19.50;9.95;;;;;;;3.65;100.00;101457.38;4905697;29;20409;-78
2023/12/14 05:01:58;;;;;;;21.52;10.88;;;;;;;3.66;100.00;101466.94;4908005;29;24296;-77
2023/12/14 05:04:26;;;;;;;20.85;10.55;;;;;;;3.66;100.00;101474.75;4927898;29;20039;-77
2023/12/14 05:06:54;;;;;;;16.25;10.32;;;;;;;3.66;100.00;101479.09;4942366;29;20058;-78
2023/12/14 05:09:22;;;;;;;17.38;10.35;;;;;;;3.68;100.00;101483.53;4925683;29;20047;-76
2023/12/14 05:11:49;;;;;;;55.40;29.55;;;;;;;3.71;100.00;101486.28;4932496;29;20058;-78
2023/12/14 05:14:16;;;;;;;66.30;38.50;;;;;;;3.73;100.00;101493.28;4870967;29;20390;-77
2023/12/14 05:16:44;;;;;;;36.17;22.13;;;;;;;3.73;100.00;101494.16;4913195;29;20590;-77
2023/12/14 05:19:12;;;;;;;30.00;11.90;;;;;;;3.71;100.00;101498.44;4920086;29;20050;-77
2023/12/14 05:21:39;;;;;;;21.27;12.75;;;;;;;3.71;100.00;101504.53;4912922;29;20075;-77
2023/12/14 05:24:07;;;;;;;24.50;12.15;;;;;;;3.71;100.00;101503.66;4940343;29;20500;-77
2023/12/14 05:26:34;;;;;;;15.32;11.25;;;;;;;3.73;100.00;101511.53;4927884;29;20055;-77
2023/12/14 05:29:02;;;;;;;20.35;10.90;;;;;;;3.72;100.00;101515.84;4871115;29;20047;-77
2023/12/14 05:31:30;;;;;;;21.45;11.55;;;;;;;3.73;100.00;101519.34;4914993;29;20062;-77
2023/12/14 05:33:59;;;;;;;22.90;11.45;;;;;;;3.73;100.00;101517.63;4913320;29;20485;-77
2023/12/14 05:36:27;;;;;;;18.00;10.33;;;;;;;3.73;100.00;101527.19;4929382;29;20051;-77
2023/12/14 05:38:54;;;;;;;19.20;11.05;;;;;;;3.71;100.00;101533.19;4912358;29;20314;-77
2023/12/14 05:41:22;;;;;;;18.55;10.85;;;;;;;3.73;100.00;101533.28;4918673;29;20054;-78
2023/12/14 05:43:49;;;;;;;25.48;11.93;;;;;;;3.74;100.00;101541.97;4892001;29;20051;-77
2023/12/14 05:46:23;;;;;;;23.30;11.90;;;;;;;3.74;100.00;101537.66;4932060;29;20063;-78
2023/12/14 05:48:51;;;;;;;23.42;11.73;;;;;;;3.75;100.00;101547.25;4948676;29;20047;-78
2023/12/14 05:51:32;;;;;;;21.60;11.23;;;;;;;3.74;100.00;101545.47;4891053;29;20058;-78
2023/12/14 05:53:59;;;;;;;16.80;10.63;;;;;;;3.76;100.00;101550.75;4906458;29;20052;-79
2023/12/14 05:56:27;;;;;;;26.70;11.48;;;;;;;3.75;100.00;101559.41;4903735;29;20044;-79
2023/12/14 05:58:54;;;;;;;22.92;11.32;;;;;;;3.75;100.00;101562.91;4885998;29;20055;-77
2023/12/14 06:01:23;;;;;;;23.65;11.68;;;;;;;3.74;100.00;101561.09;4917365;29;20043;-77
2023/12/14 06:03:51;;;;;;;25.30;11.13;;;;;;;3.73;100.00;101572.38;4900565;29;20062;-77
2023/12/14 06:06:18;;;;;;;25.10;11.98;;;;;;;3.74;100.00;101571.53;4900527;29;20058;-77
2023/12/14 06:08:46;;;;;;;21.02;11.88;;;;;;;3.73;100.00;101574.97;4912793;29;20047;-77
2023/12/14 06:11:14;;;;;;;18.33;11.48;;;;;;;3.73;100.00;101584.53;4903268;29;20528;-77
2023/12/14 06:13:41;;;;;;;16.73;10.95;;;;;;;3.73;100.00;101588.03;4921216;29;20050;-77
2023/12/14 06:16:12;;;;;;;18.92;11.13;;;;;;;3.73;100.00;101590.63;4904801;29;20051;-78
2023/12/14 06:18:43;;;;;;;20.58;10.75;;;;;;;3.73;100.00;101584.53;4945756;28;20043;-78
2023/12/14 06:21:12;;;;;;;27.27;13.63;;;;;;;3.74;100.00;101601.94;4911329;29;20125;-77
2023/12/14 06:23:39;;;;;;;42.30;19.50;;;;;;;3.74;100.00;101596.72;4926555;29;20046;-77
2023/12/14 06:26:07;;;;;;;23.67;14.18;;;;;;;3.76;100.00;101600.28;4896985;29;20059;-77
2023/12/14 06:28:34;;;;;;;24.15;12.07;;;;;;;3.75;100.00;101604.63;4916982;29;20125;-78
2023/12/14 06:31:02;;;;;;;36.58;19.85;;;;;;;3.74;100.00;101610.63;4882841;29;20055;-78
2023/12/14 06:33:31;;;;;;;24.92;13.05;;;;;;;3.75;100.00;101604.63;4941563;29;20047;-78
2023/12/14 06:36:03;;;;;;;22.13;9.43;;;;;;;3.74;100.00;101613.25;4916379;29;20059;-78
2023/12/14 06:38:31;;;;;;;19.42;8.00;;;;;;;3.70;100.00;101614.84;4937416;29;20043;-76
2023/12/14 06:40:58;;;;;;;20.95;7.15;;;;;;;3.68;100.00;101623.41;4918478;29;20059;-76
2023/12/14 06:43:26;;;;;;;16.92;10.15;;;;;;;3.67;100.00;101626.88;4891666;29;20040;-77
2023/12/14 06:45:53;;;;;;;16.83;8.38;;;;;;;3.64;100.00;101622.38;4919206;29;20047;-76
2023/12/14 06:48:21;;;;;;;15.48;6.80;;;;;;;3.62;100.00;101630.97;4852035;29;20047;-76
2023/12/14 06:50:48;;;;;;;18.00;6.13;;;;;;;3.59;100.00;101636.03;4922614;29;20441;-76
2023/12/14 06:53:15;;;;;;;11.95;5.95;;;;;;;3.60;100.00;101643.03;4886365;29;20129;-77
2023/12/14 06:55:43;;;;;;;11.77;6.28;;;;;;;3.61;100.00;101643.13;4907230;29;20357;-77
2023/12/14 06:58:11;;;;;;;17.52;6.43;;;;;;;3.61;100.00;101648.34;4936862;28;20077;-75
2023/12/14 07:00:39;;;;;;;16.95;6.95;;;;;;;3.63;100.00;101651.91;4913746;29;20063;-77
2023/12/14 07:03:06;;;;;;;15.80;6.28;;;;;;;3.64;100.00;101642.34;4856617;29;20062;-77
2023/12/14 07:05:34;;;;;;;12.65;6.18;;;;;;;3.69;100.00;101656.50;4925360;29;20528;-76
2023/12/14 07:08:02;;;;;;;13.95;6.43;;;;;;;3.70;100.00;101647.81;4910611;28;20605;-78
2023/12/14 07:10:29;;;;;;;17.25;6.85;;;;;;;3.70;100.00;101660.88;4908610;29;20050;-78
2023/12/14 07:12:57;;;;;;;17.35;7.72;;;;;;;3.68;100.00;101658.19;4899907;29;20464;-76
2023/12/14 07:15:24;;;;;;;20.45;7.50;;;;;;;3.68;100.00;101662.50;4919866;29;20055;-77
2023/12/14 07:17:53;;;;;;;15.95;8.15;;;;;;;3.66;100.00;101670.25;4884926;29;20067;-77
2023/12/14 07:20:21;;;;;;;12.70;6.80;;;;;;;3.67;100.00;101676.38;4918653;29;20520;-76
2023/12/14 07:22:48;;;;;;;17.65;8.15;;;;;;;3.66;100.00;101674.59;4930457;29;20051;-76
2023/12/14 07:25:16;;;;;;;19.08;7.63;;;;;;;3.66;100.00;101672.88;4902275;29;20476;-76
2023/12/14 07:27:43;;;;;;;19.13;9.15;;;;;;;3.66;100.00;101679.81;4913807;29;20051;-76
2023/12/14 07:30:11;;;;;;;14.90;8.48;;;;;;;3.65;100.00;101681.53;4923305;29;20420;-77
2023/12/14 07:32:39;;;;;;;15.65;7.93;;;;;;;3.64;100.00;101684.06;4873131;29;20048;-77
2023/12/14 07:35:06;;;;;;;15.38;7.68;;;;;;;3.63;100.00;101677.97;4933486;29;20051;-76
2023/12/14 07:37:34;;;;;;;19.08;7.75;;;;;;;3.63;100.00;101687.47;4939389;29;20051;-77
2023/12/14 07:40:03;;;;;;;20.45;8.65;;;;;;;3.65;100.00;101697.16;4902848;29;20071;-77
2023/12/14 07:42:30;;;;;;;17.50;7.82;;;;;;;3.66;100.00;101685.00;4937704;29;20988;-76
2023/12/14 07:44:57;;;;;;;16.50;7.70;;;;;;;3.66;100.00;101698.06;4937837;29;20051;-76
2023/12/14 07:47:24;;;;;;;14.63;7.40;;;;;;;3.64;100.00;101710.13;4936514;29;20043;-77
2023/12/14 07:49:52;;;;;;;18.02;8.18;;;;;;;3.64;100.00;101710.13;4907004;28;20054;-77
2023/12/14 07:52:19;;;;;;;20.73;8.60;;;;;;;3.62;100.00;101712.66;4919692;29;20507;-77
2023/12/14 07:54:47;;;;;;;17.23;6.85;;;;;;;3.63;100.00;101718.75;4917456;29;20055;-77
2023/12/14 07:57:15;;;;;;;20.33;9.35;;;;;;;3.59;100.00;101714.22;4888643;29;20047;-76
2023/12/14 07:59:43;;;;;;;18.58;10.32;;;;;;;3.59;100.00;101719.44;4924243;29;20074;-77
2023/12/14 08:02:10;;;;;;;15.85;9.07;;;;;;;3.58;100.00;101725.50;4907137;29;20062;-77
2023/12/14 08:04:38;;;;;;;18.73;9.65;;;;;;;3.58;100.00;101728.09;4888936;29;28644;-77
2023/12/14 08:07:05;;;;;;;17.25;9.10;;;;;;;3.58;100.00;101725.50;4933193;29;20054;-78
2023/12/14 08:09:33;;;;;;;23.67;9.27;;;;;;;3.60;100.00;101731.66;4886478;29;20089;-77
2023/12/14 08:12:00;;;;;;;17.63;9.10;;;;;;;3.61;100.00;101736.03;4922807;29;20058;-77
2023/12/14 08:14:28;;;;;;;17.67;8.88;;;;;;;3.61;100.00;101742.16;4900536;29;20054;-77
2023/12/14 08:16:57;;;;;;;17.67;9.52;;;;;;;3.65;100.00;101748.41;4894903;29;20504;-77
2023/12/14 08:19:25;;;;;;;21.30;9.40;;;;;;;3.66;100.00;101748.47;4929412;29;20397;-78
2023/12/14 08:21:52;;;;;;;21.02;9.25;;;;;;;3.67;100.00;101752.88;4875911;29;20067;-76
2023/12/14 08:24:20;;;;;;;19.73;9.80;;;;;;;3.69;100.00;101760.75;4912977;29;20048;-76
2023/12/14 08:26:47;;;;;;;24.05;10.70;;;;;;;3.73;100.00;101767.00;4949641;29;20059;-76
2023/12/14 08:29:15;;;;;;;24.20;9.90;;;;;;;3.75;100.00;101781.88;4901412;29;20051;-76
2023/12/14 08:31:42;;;;;;;18.33;9.65;;;;;;;3.78;100.00;101778.53;4911785;29;20075;-77
2023/12/14 08:34:10;;;;;;;21.45;10.27;;;;;;;3.82;100.00;101785.66;4916204;29;20060;-78
2023/12/14 08:36:37;;;;;;;24.23;9.45;;;;;;;3.84;100.00;101792.75;4885656;29;20055;-77
2023/12/14 08:39:05;;;;;;;18.17;9.20;;;;;;;3.86;100.00;101785.88;4932302;29;20062;-77
2023/12/14 08:41:32;;;;;;;18.30;9.43;;;;;;;3.89;100.00;101780.81;4928425;29;20054;-77
2023/12/14 08:44:00;;;;;;;18.42;9.05;;;;;;;3.89;100.00;101791.25;4906798;29;20051;-77
2023/12/14 08:46:27;;;;;;;15.25;8.73;;;;;;;3.92;100.00;101794.81;4921524;29;20056;-77
2023/12/14 08:48:55;;;;;;;16.00;9.65;;;;;;;3.93;100.00;101801.78;4901182;29;20532;-77
2023/12/14 08:51:24;;;;;;;15.60;8.60;;;;;;;3.93;100.00;101805.28;4849368;29;20051;-76
2023/12/14 08:53:51;;;;;;;18.60;9.10;;;;;;;3.94;100.00;101798.38;4932803;29;20059;-77
2023/12/14 08:56:19;;;;;;;17.23;9.50;;;;;;;3.94;100.00;101804.47;4911726;29;20066;-77
2023/12/14 08:58:46;;;;;;;18.40;9.02;;;;;;;3.95;100.00;101813.19;4922300;29;20054;-76
2023/12/14 09:01:20;;;;;;;19.90;9.07;;;;;;;3.96;100.00;101815.88;4924197;29;20063;-76
2023/12/14 09:03:50;;;;;;;17.75;9.10;;;;;;;3.99;100.00;101815.09;4930077;29;20078;-77
2023/12/14 09:06:18;;;;;;;15.27;8.40;;;;;;;4.01;100.00;101827.41;4929022;29;20043;-76
2023/12/14 09:08:46;;;;;;;19.75;8.82;;;;;;;4.02;100.00;101823.09;4888597;29;20055;-77
2023/12/14 09:11:15;;;;;;;16.77;8.73;;;;;;;4.04;100.00;101826.66;4914348;29;20050;-76
2023/12/14 09:13:42;;;;;;;16.58;8.45;;;;;;;4.06;100.00;101822.41;4948453;29;20047;-77
2023/12/14 09:16:10;;;;;;;16.08;8.73;;;;;;;4.06;100.00;101819.78;4920779;29;20051;-77
2023/12/14 09:18:37;;;;;;;22.10;9.85;;;;;;;4.08;100.00;101828.56;4907543;29;20729;-77
2023/12/14 09:21:06;;;;;;;17.73;8.35;;;;;;;4.09;100.00;101830.38;4946499;29;20055;-77
2023/12/14 09:23:33;;;;;;;15.50;8.45;;;;;;;4.10;100.00;101835.66;4884396;29;20047;-76
2023/12/14 09:26:00;;;;;;;16.27;8.20;;;;;;;4.14;100.00;101839.31;4920159;28;20082;-77
2023/12/14 09:28:28;;;;;;;15.52;8.20;;;;;;;4.16;100.00;101832.44;4928032;29;20162;-76
2023/12/14 09:30:57;;;;;;;17.43;7.50;;;;;;;4.22;100.00;101839.66;4890750;29;20375;-76
2023/12/14 09:33:25;;;;;;;19.35;8.60;;;;;;;4.26;100.00;101847.66;4920664;29;20055;-76
2023/12/14 09:35:52;;;;;;;24.70;8.55;;;;;;;4.30;100.00;101857.41;4915340;29;20085;-77
2023/12/14 09:38:20;;;;;;;16.27;9.23;;;;;;;4.30;100.00;101852.19;4886022;29;20504;-77
2023/12/14 09:40:49;;;;;;;18.80;9.73;;;;;;;4.34;100.00;101852.34;4900209;29;20051;-77
2023/12/14 09:43:16;;;;;;;16.38;8.70;;;;;;;4.36;100.00;101858.53;4944653;29;20050;-77
2023/12/14 09:45:45;;;;;;;20.20;10.18;;;;;;;4.39;100.00;101850.84;4922212;29;20039;-77
2023/12/14 09:48:15;;;;;;;16.30;9.38;;;;;;;4.40;100.00;101863.94;4921385;29;20055;-77
2023/12/14 09:50:44;;;;;;;21.60;8.98;;;;;;;4.41;100.00;101865.72;4929947;29;20058;-77
2023/12/14 09:53:12;;;;;;;15.73;9.23;;;;;;;4.42;100.00;101864.91;4888234;29;20050;-76
2023/12/14 09:55:39;;;;;;;18.75;9.20;;;;;;;4.43;100.00;101863.19;4934549;28;20688;-77
2023/12/14 09:58:09;;;;;;;18.98;9.75;;;;;;;4.44;100.00;101864.97;4898998;29;20055;-77
2023/12/14 10:00:38;;;;;;;22.45;10.40;;;;;;;4.45;100.00;101865.03;4946795;29;20094;-77
2023/12/14 10:03:27;;;;;;;23.25;9.32;;;;;;;4.43;100.00;101864.06;4905733;29;20051;-77
2023/12/14 10:05:55;;;;;;;18.70;9.30;;;;;;;4.45;100.00;101869.38;4929937;29;20047;-76
2023/12/14 10:08:25;;;;;;;18.77;9.48;;;;;;;4.46;100.00;101879.88;4927344;29;20074;-77
2023/12/14 10:10:55;;;;;;;19.40;9.75;;;;;;;4.48;100.00;101882.56;4838374;29;20051;-77
2023/12/14 10:13:37;;;;;;;18.13;9.77;;;;;;;4.48;100.00;101887.78;4926944;29;20054;-76
2023/12/14 10:16:05;;;;;;;16.83;10.60;;;;;;;4.48;100.00;101887.78;4929770;29;20047;-76
2023/12/14 10:18:36;;;;;;;20.77;9.57;;;;;;;4.46;100.00;101890.31;4929766;29;20059;-76
2023/12/14 10:21:07;;;;;;;17.23;9.57;;;;;;;4.43;100.00;101898.00;4928516;29;20055;-77
2023/12/14 10:23:35;;;;;;;;;;;;;;;4.45;100.00;101892.88;4912616;29;20064;-76
2023/12/14 10:26:04;;;;;;;17.48;9.02;;;;;;;4.46;100.00;101890.31;4882842;28;20406;-76
2023/12/14 10:28:32;;;;;;;19.75;9.75;;;;;;;4.48;100.00;101893.00;4935041;29;20058;-77
2023/12/14 10:30:59;;;;;;;18.73;10.00;;;;;;;4.48;100.00;101893.91;4913409;29;20050;-77
2023/12/14 10:33:27;;;;;;;19.67;9.68;;;;;;;4.51;100.00;101897.47;4881314;29;20059;-76
2023/12/14 10:35:56;;;;;;;16.98;8.50;;;;;;;4.52;100.00;101900.16;4930061;29;20047;-77
2023/12/14 10:38:28;;;;;;;17.15;9.60;;;;;;;4.54;100.00;101900.19;4926123;29;20058;-76
2023/12/14 10:40:57;;;;;;;24.15;9.70;;;;;;;4.53;100.00;101896.69;4930158;29;20050;-77
2023/12/14 10:43:26;;;;;;;20.38;9.73;;;;;;;4.54;100.00;101897.59;4857362;29;20519;-78
2023/12/14 10:45:57;;;;;;;16.02;9.27;;;;;;;4.53;100.00;101907.13;4919745;29;20039;-77
2023/12/14 10:48:26;;;;;;;21.90;10.82;;;;;;;4.53;100.00;101896.69;4900210;29;20508;-77
2023/12/14 10:50:56;;;;;;;18.95;9.48;;;;;;;4.54;100.00;101903.72;4911171;29;20039;-77
2023/12/14 10:53:25;;;;;;;;;;;;;;;4.52;100.00;101909.69;4928285;29;20114;-76
2023/12/14 10:55:54;;;;;;;27.52;12.98;;;;;;;4.52;100.00;101910.59;4905504;29;19929;-76
2023/12/14 10:58:23;;;;;;;26.55;12.25;;;;;;;4.53;100.00;101911.47;4892043;29;20069;-78
2023/12/14 11:01:14;;;;;;;19.42;11.80;;;;;;;4.54;100.00;101913.25;4914071;29;20058;-77
2023/12/14 11:03:41;;;;;;;20.30;11.10;;;;;;;4.55;100.00;101921.16;4920798;29;20051;-78
2023/12/14 11:06:35;;;;;;;22.92;10.77;;;;;;;4.56;100.00;101922.94;4893349;29;20055;-77
2023/12/14 11:09:10;;;;;;;21.38;10.73;;;;;;;4.55;100.00;101909.81;4902268;29;20059;-77
2023/12/14 11:11:53;;;;;;;37.13;16.55;;;;;;;4.57;100.00;101921.22;4934625;28;20674;-77
2023/12/14 11:14:22;;;;;;;29.40;13.70;;;;;;;4.59;100.00;101917.84;4921384;28;20043;-78
2023/12/14 11:16:54;;;;;;;26.92;12.65;;;;;;;4.61;100.00;101925.75;4921837;29;20055;-77
2023/12/14 11:19:21;;;;;;;19.38;10.32;;;;;;;4.63;100.00;101926.72;4926591;28;20058;-77
2023/12/14 11:21:55;;;;;;;19.83;10.50;;;;;;;4.62;100.00;101924.94;4934043;28;20519;-77